KAGC METAR
PITTSBURGH/ALLEG, PA
Metar
KAGC 200853Z 00000KT 10SM BKN039 19/18 A2989 RMK AO2 SLP117 T01940183 58007

08:53 UTC

Wind: 0° 0kt

Visibility: 10 SM

Sky: BKN 3900 ft

Temp: 19 deg C / 66.2 deg F

Dewpoint: 18 deg C / 64.4 deg F

Pressure: 29.89 inHg

TAF
KAGC 200528Z 2006/2106 00000KT P6SM BKN120 FM201300 00000KT P6SM VCSH OVC025 FM201600 22004KT 6SM -SHRA VCTS BKN025CB FM202000 23004KT 6SM -SHRA VCTS BKN035CB FM210100 VRB03KT P6SM VCTS BKN030CB